createdAt,value
2018-12-07T00:01:39.095Z,12.00
2018-12-07T00:04:13.851Z,12.00
2018-12-07T00:06:48.343Z,12.00
2018-12-07T00:09:23.445Z,12.00
2018-12-07T00:11:58.418Z,12.10
2018-12-07T00:14:34.136Z,12.10
2018-12-07T00:17:09.875Z,12.10
2018-12-07T00:19:48.133Z,12.10
2018-12-07T00:22:22.816Z,12.00
2018-12-07T00:24:57.765Z,11.90
2018-12-07T00:27:32.599Z,11.90
2018-12-07T00:30:09.675Z,11.90
2018-12-07T00:32:44.816Z,11.80
2018-12-07T00:35:19.302Z,11.80
2018-12-07T00:37:54.301Z,11.80
2018-12-07T00:40:29.911Z,11.80
2018-12-07T00:43:06.737Z,11.70
2018-12-07T00:45:42.424Z,11.70
2018-12-07T00:48:17.213Z,11.60
2018-12-07T00:50:51.970Z,11.60
2018-12-07T00:53:26.777Z,11.50
2018-12-07T00:56:01.611Z,11.50
2018-12-07T00:58:38.900Z,11.50
2018-12-07T01:01:13.625Z,11.50
2018-12-07T01:03:48.138Z,11.50
2018-12-07T01:06:22.760Z,11.50
2018-12-07T01:08:57.353Z,11.50
2018-12-07T01:11:33.138Z,11.50
2018-12-07T01:14:09.472Z,11.50
2018-12-07T01:16:44.084Z,11.50
2018-12-07T01:19:18.767Z,11.50
2018-12-07T01:21:53.490Z,11.50
2018-12-07T01:24:30.166Z,11.60
2018-12-07T01:27:04.874Z,11.50
2018-12-07T01:29:42.262Z,11.60
2018-12-07T01:32:16.811Z,11.60
2018-12-07T01:34:52.605Z,11.60
2018-12-07T01:37:28.224Z,11.60
2018-12-07T01:40:03.749Z,11.50
2018-12-07T01:42:41.853Z,11.50
2018-12-07T01:45:16.539Z,11.50
2018-12-07T01:47:51.354Z,11.50
2018-12-07T01:50:26.030Z,11.50
2018-12-07T01:53:00.850Z,11.50
2018-12-07T01:55:38.801Z,11.60
2018-12-07T01:58:13.598Z,11.60
2018-12-07T02:00:48.364Z,11.60
2018-12-07T02:03:23.039Z,11.60
2018-12-07T02:05:57.867Z,11.60
2018-12-07T02:08:32.677Z,11.50
2018-12-07T02:11:09.181Z,11.50
2018-12-07T02:13:43.831Z,11.50
2018-12-07T02:16:25.264Z,11.50
2018-12-07T02:19:00.643Z,11.50
2018-12-07T02:21:39.630Z,11.60
2018-12-07T02:24:14.239Z,11.60
2018-12-07T02:26:49.822Z,11.60
2018-12-07T02:29:26.745Z,11.60
2018-12-07T02:32:02.037Z,11.60
2018-12-07T02:34:38.636Z,11.60
2018-12-07T02:37:13.240Z,11.60
2018-12-07T02:39:47.765Z,11.70
2018-12-07T02:42:23.497Z,11.70
2018-12-07T02:44:58.045Z,11.70
2018-12-07T02:47:34.039Z,11.70
2018-12-07T02:50:10.664Z,11.70
2018-12-07T02:52:45.488Z,11.70
2018-12-07T02:55:19.928Z,11.70
2018-12-07T02:57:55.061Z,11.70
2018-12-07T03:00:30.624Z,11.70
2018-12-07T03:03:08.629Z,11.70
2018-12-07T03:05:44.280Z,11.70
2018-12-07T03:08:18.999Z,11.80
2018-12-07T03:10:53.811Z,11.80
2018-12-07T03:13:28.460Z,11.80
2018-12-07T03:16:03.835Z,11.70
2018-12-07T03:18:38.442Z,11.80
2018-12-07T03:21:13.193Z,11.70
2018-12-07T03:23:47.893Z,11.70
2018-12-07T03:26:22.680Z,11.70
2018-12-07T03:28:58.030Z,11.70
2018-12-07T03:31:35.539Z,11.70
2018-12-07T03:34:12.118Z,11.70
2018-12-07T03:36:46.634Z,11.80
2018-12-07T03:39:21.518Z,11.70
2018-12-07T03:41:56.245Z,11.80
2018-12-07T03:44:30.960Z,11.70
2018-12-07T03:47:11.580Z,11.70
2018-12-07T03:49:45.987Z,11.70
2018-12-07T03:52:20.693Z,11.80
2018-12-07T03:54:55.239Z,11.70
2018-12-07T03:57:30.706Z,11.70
2018-12-07T04:00:06.476Z,11.70
2018-12-07T04:02:41.721Z,11.70
2018-12-07T04:05:16.324Z,11.70
2018-12-07T04:07:52.148Z,11.80
2018-12-07T04:10:26.982Z,11.70
2018-12-07T04:13:01.864Z,11.80
2018-12-07T04:15:37.102Z,11.80
2018-12-07T04:18:12.797Z,11.80
2018-12-07T04:20:47.348Z,11.80
2018-12-07T04:23:21.977Z,11.80
2018-12-07T04:25:56.658Z,11.80
2018-12-07T04:28:31.108Z,11.80
2018-12-07T04:31:08.812Z,11.80
2018-12-07T04:33:43.453Z,11.70
2018-12-07T04:36:18.143Z,11.70
2018-12-07T04:38:52.966Z,11.70
2018-12-07T04:41:27.536Z,11.20
2018-12-07T04:44:02.339Z,11.70
2018-12-07T04:46:39.672Z,11.70
2018-12-07T04:49:14.351Z,11.70
2018-12-07T04:51:49.505Z,11.70
2018-12-07T04:54:24.252Z,11.70
2018-12-07T04:57:00.023Z,11.70
2018-12-07T04:59:43.337Z,11.70
2018-12-07T05:02:18.425Z,11.70
2018-12-07T05:04:54.489Z,11.70
2018-12-07T05:07:30.164Z,11.70
2018-12-07T05:10:07.397Z,11.70
2018-12-07T05:12:43.834Z,11.70
2018-12-07T05:15:18.302Z,11.70
2018-12-07T05:17:53.083Z,11.70
2018-12-07T05:20:29.559Z,11.80
2018-12-07T05:23:04.424Z,11.80
2018-12-07T05:25:41.922Z,11.80
2018-12-07T05:28:17.289Z,11.80
2018-12-07T05:30:52.000Z,11.80
2018-12-07T05:33:29.074Z,12.20
2018-12-07T05:36:04.594Z,11.60
2018-12-07T05:38:43.110Z,11.60
2018-12-07T05:41:17.617Z,11.60
2018-12-07T05:44:01.626Z,11.60
2018-12-07T05:46:36.422Z,11.60
2018-12-07T05:49:12.545Z,11.60
2018-12-07T05:51:47.105Z,9.00
2018-12-07T05:54:21.676Z,11.60
2018-12-07T05:56:56.206Z,11.60
2018-12-07T05:59:32.936Z,11.60
2018-12-07T06:02:08.446Z,11.60
2018-12-07T06:04:43.606Z,11.60
2018-12-07T06:07:18.117Z,11.60
2018-12-07T06:09:52.674Z,11.60
2018-12-07T06:12:29.301Z,11.50
2018-12-07T06:15:04.834Z,11.60
2018-12-07T06:17:39.763Z,11.60
2018-12-07T06:20:14.436Z,11.60
2018-12-07T06:22:49.087Z,11.70
2018-12-07T06:25:23.783Z,11.60
2018-12-07T06:28:00.405Z,11.60
2018-12-07T06:30:36.399Z,11.60
2018-12-07T06:33:11.135Z,11.60
2018-12-07T06:35:45.781Z,11.70
2018-12-07T06:38:20.364Z,11.70
2018-12-07T06:40:55.196Z,11.60
2018-12-07T06:43:31.920Z,11.60
2018-12-07T06:46:07.797Z,11.70
2018-12-07T06:48:43.923Z,11.60
2018-12-07T06:51:18.704Z,10.30
2018-12-07T06:53:55.059Z,12.00
2018-12-07T06:56:30.967Z,11.70
2018-12-07T06:59:08.008Z,11.70
2018-12-07T07:01:42.673Z,11.70
2018-12-07T07:04:17.503Z,11.70
2018-12-07T07:06:52.914Z,11.70
2018-12-07T07:09:27.646Z,11.80
2018-12-07T07:12:05.150Z,11.80
2018-12-07T07:14:41.585Z,11.80
2018-12-07T07:17:17.207Z,11.80
2018-12-07T07:19:53.898Z,11.80
2018-12-07T07:22:29.070Z,11.80
2018-12-07T07:25:06.266Z,11.80
2018-12-07T07:27:42.193Z,11.80
2018-12-07T07:30:16.750Z,11.90
2018-12-07T07:32:51.559Z,11.90
2018-12-07T07:35:26.163Z,11.90
2018-12-07T07:38:07.495Z,11.90
2018-12-07T07:40:42.699Z,12.00
2018-12-07T07:43:17.239Z,12.00
2018-12-07T07:45:52.049Z,12.00
2018-12-07T07:48:26.749Z,12.00
2018-12-07T07:51:03.770Z,12.00
2018-12-07T07:53:40.394Z,12.00
2018-12-07T07:56:15.552Z,12.00
2018-12-07T07:58:50.505Z,11.90
2018-12-07T08:01:25.175Z,11.90
2018-12-07T08:04:03.604Z,11.90
2018-12-07T08:06:39.794Z,11.90
2018-12-07T08:09:14.470Z,11.80
2018-12-07T08:11:49.187Z,11.80
2018-12-07T08:14:23.826Z,11.90
2018-12-07T08:16:59.788Z,11.90
2018-12-07T08:19:37.729Z,11.80
2018-12-07T08:22:14.162Z,11.80
2018-12-07T08:24:48.751Z,11.90
2018-12-07T08:27:23.361Z,11.90
2018-12-07T08:29:58.728Z,11.90
2018-12-07T08:32:35.577Z,11.90
2018-12-07T08:35:10.985Z,11.90
2018-12-07T08:37:45.685Z,12.00
2018-12-07T08:40:20.391Z,12.00
2018-12-07T08:42:54.834Z,12.00
2018-12-07T08:45:30.761Z,12.00
2018-12-07T08:48:14.814Z,12.00
2018-12-07T08:50:51.962Z,11.90
2018-12-07T08:53:28.856Z,12.00
2018-12-07T08:56:18.462Z,12.00
2018-12-07T08:58:53.373Z,12.00
2018-12-07T09:01:40.682Z,12.10
2018-12-07T09:04:16.204Z,14.90
2018-12-07T09:06:50.681Z,12.00
2018-12-07T09:09:25.213Z,12.00
2018-12-07T09:12:05.374Z,12.00
2018-12-07T09:14:43.711Z,12.00
2018-12-07T09:17:18.413Z,12.00
2018-12-07T09:19:55.212Z,12.00
2018-12-07T09:22:35.841Z,11.90
2018-12-07T09:25:14.710Z,11.90
2018-12-07T09:27:49.465Z,11.90
2018-12-07T09:30:24.193Z,12.00
2018-12-07T09:33:02.886Z,12.00
2018-12-07T09:35:41.318Z,12.10
2018-12-07T09:38:15.956Z,12.30
2018-12-07T09:40:50.664Z,12.10
2018-12-07T09:46:24.670Z,12.20
2018-12-07T09:49:17.002Z,12.20
2018-12-07T09:51:52.318Z,12.20
2018-12-07T09:54:30.733Z,12.20
2018-12-07T09:57:12.866Z,8.40
2018-12-07T09:59:49.288Z,12.20
2018-12-07T10:02:24.138Z,12.20
2018-12-07T10:05:04.718Z,12.20
2018-12-07T10:07:44.647Z,12.20
2018-12-07T10:10:19.437Z,12.20
2018-12-07T10:12:54.579Z,12.20
2018-12-07T10:18:20.489Z,12.20
2018-12-07T10:20:57.479Z,12.20
2018-12-07T10:23:36.984Z,12.20
2018-12-07T10:26:12.944Z,12.20
2018-12-07T10:28:47.704Z,11.50
2018-12-07T10:31:22.601Z,12.30
2018-12-07T10:34:13.533Z,12.20
2018-12-07T10:36:48.061Z,12.20
2018-12-07T10:39:22.822Z,12.20
2018-12-07T10:42:11.596Z,12.30
2018-12-07T10:44:46.357Z,12.30
2018-12-07T10:47:21.181Z,12.30
2018-12-07T10:50:07.103Z,12.30
2018-12-07T10:52:43.508Z,12.30
2018-12-07T10:55:19.335Z,12.30
2018-12-07T10:57:55.226Z,12.30
2018-12-07T11:00:50.489Z,14.30
2018-12-07T11:03:30.462Z,12.20
2018-12-07T11:06:10.552Z,12.20
2018-12-07T11:08:50.528Z,12.20
2018-12-07T11:11:30.660Z,12.30
2018-12-07T11:14:12.265Z,12.30
2018-12-07T11:16:52.218Z,12.30
2018-12-07T11:19:32.230Z,12.30
2018-12-07T11:22:12.183Z,12.30
2018-12-07T11:24:51.811Z,12.20
2018-12-07T11:27:31.988Z,12.20
2018-12-07T11:30:12.169Z,12.10
2018-12-07T11:32:52.195Z,12.00
2018-12-07T11:35:30.964Z,12.00
2018-12-07T11:38:05.633Z,12.00
2018-12-07T11:40:40.115Z,12.00
2018-12-07T11:43:14.883Z,12.00
2018-12-07T11:45:49.477Z,12.10
2018-12-07T11:48:24.187Z,12.10
2018-12-07T11:50:58.594Z,12.20
2018-12-07T11:53:33.255Z,12.20
2018-12-07T11:56:07.740Z,12.20
2018-12-07T11:58:42.465Z,12.10
2018-12-07T12:01:17.283Z,12.10
2018-12-07T12:03:51.784Z,12.20
2018-12-07T12:06:26.405Z,12.20
2018-12-07T12:09:00.880Z,12.30
2018-12-07T12:11:35.833Z,12.40
2018-12-07T12:14:10.349Z,12.40
2018-12-07T12:16:45.899Z,12.50
2018-12-07T12:19:20.491Z,12.50
2018-12-07T12:21:54.989Z,12.50
2018-12-07T12:24:29.549Z,12.40
2018-12-07T12:27:04.270Z,12.40
2018-12-07T12:29:38.912Z,12.40
2018-12-07T12:32:13.463Z,12.40
2018-12-07T12:34:48.041Z,12.40
2018-12-07T12:37:22.488Z,12.40
2018-12-07T12:39:57.388Z,12.50
2018-12-07T12:42:31.870Z,12.50
2018-12-07T12:45:06.676Z,12.50
2018-12-07T12:47:41.289Z,12.40
2018-12-07T12:50:21.385Z,12.50
2018-12-07T12:52:56.152Z,12.50
2018-12-07T12:55:30.754Z,12.60
2018-12-07T12:58:05.417Z,12.60
2018-12-07T13:00:40.888Z,12.60
2018-12-07T13:03:15.548Z,12.60
2018-12-07T13:05:50.889Z,12.60
2018-12-07T13:08:25.408Z,16.00
2018-12-07T13:11:00.619Z,12.50
2018-12-07T13:13:35.081Z,12.60
2018-12-07T13:16:10.126Z,12.60
2018-12-07T13:18:44.754Z,12.60
2018-12-07T13:21:19.142Z,12.70
2018-12-07T13:23:53.628Z,12.70
2018-12-07T13:26:28.219Z,12.70
2018-12-07T13:29:02.887Z,12.70
2018-12-07T13:31:37.466Z,12.80
2018-12-07T13:34:12.050Z,12.70
2018-12-07T13:36:46.632Z,12.80
2018-12-07T13:39:21.393Z,12.70
2018-12-07T13:41:56.016Z,12.70
2018-12-07T13:44:30.659Z,12.70
2018-12-07T13:47:05.270Z,12.70
2018-12-07T13:49:40.017Z,12.60
2018-12-07T13:52:14.696Z,12.70
2018-12-07T13:54:49.268Z,12.70
2018-12-07T13:57:24.746Z,12.70
2018-12-07T13:59:59.614Z,12.70
2018-12-07T14:02:35.890Z,12.70
2018-12-07T14:05:11.008Z,12.60
2018-12-07T14:07:45.677Z,13.60
2018-12-07T14:10:20.352Z,12.60
2018-12-07T14:12:55.998Z,12.60
2018-12-07T14:15:30.666Z,12.50
2018-12-07T14:18:05.525Z,12.60
2018-12-07T14:20:40.318Z,12.50
2018-12-07T14:23:15.150Z,12.40
2018-12-07T14:25:50.202Z,12.40
2018-12-07T14:28:25.674Z,12.40
2018-12-07T14:31:00.489Z,12.40
2018-12-07T14:33:36.148Z,12.40
2018-12-07T14:36:10.725Z,12.40
2018-12-07T14:38:46.366Z,12.40
2018-12-07T14:41:20.983Z,12.40
2018-12-07T14:43:56.318Z,12.30
2018-12-07T14:46:31.479Z,12.30
2018-12-07T14:49:06.137Z,12.30
2018-12-07T14:51:40.907Z,12.30
2018-12-07T14:54:15.714Z,12.30
2018-12-07T14:56:50.199Z,12.30
2018-12-07T14:59:24.799Z,12.30
2018-12-07T15:01:59.458Z,12.30
2018-12-07T15:04:34.113Z,12.30
2018-12-07T15:07:08.898Z,12.30
2018-12-07T15:09:43.570Z,12.30
2018-12-07T15:12:18.037Z,12.30
2018-12-07T15:14:52.772Z,12.30
2018-12-07T15:17:27.534Z,12.30
2018-12-07T15:20:02.656Z,12.30
2018-12-07T15:22:37.284Z,12.30
2018-12-07T15:25:12.572Z,12.20
2018-12-07T15:27:47.435Z,12.20
2018-12-07T15:30:22.002Z,12.20
2018-12-07T15:32:56.836Z,12.20
2018-12-07T15:35:31.612Z,12.20
2018-12-07T15:38:06.341Z,12.20
2018-12-07T15:40:40.881Z,12.10
2018-12-07T15:43:15.329Z,12.10
2018-12-07T15:45:49.942Z,12.10
2018-12-07T15:48:24.545Z,12.10
2018-12-07T15:50:59.139Z,12.10
2018-12-07T15:53:34.070Z,12.10
2018-12-07T15:56:08.593Z,12.10
2018-12-07T15:58:43.101Z,12.10
2018-12-07T16:01:18.715Z,12.00
2018-12-07T16:03:53.464Z,12.00
2018-12-07T16:06:29.635Z,12.00
2018-12-07T16:09:08.361Z,12.00
2018-12-07T16:11:43.141Z,11.90
2018-12-07T16:14:17.721Z,11.90
2018-12-07T16:16:52.434Z,11.80
2018-12-07T16:19:27.264Z,11.80
2018-12-07T16:22:01.898Z,11.80
2018-12-07T16:24:36.484Z,11.70
2018-12-07T16:27:11.158Z,11.70
2018-12-07T16:29:45.896Z,11.60
2018-12-07T16:32:20.665Z,11.60
2018-12-07T16:34:56.343Z,11.50
2018-12-07T16:37:30.868Z,11.40
2018-12-07T16:40:07.460Z,11.40
2018-12-07T16:42:42.169Z,11.40
2018-12-07T16:45:17.070Z,11.30
2018-12-07T16:47:51.966Z,11.30
2018-12-07T16:50:26.862Z,11.30
2018-12-07T16:53:01.480Z,11.20
2018-12-07T16:55:36.361Z,11.20
2018-12-07T16:58:11.165Z,11.10
2018-12-07T17:00:45.941Z,11.20
2018-12-07T17:03:20.542Z,11.20
2018-12-07T17:05:55.265Z,11.20
2018-12-07T17:08:29.929Z,11.20
2018-12-07T17:11:04.496Z,11.30
2018-12-07T17:13:39.220Z,11.20
2018-12-07T17:16:13.906Z,11.30
2018-12-07T17:18:48.586Z,11.30
2018-12-07T17:21:23.205Z,11.30
2018-12-07T17:23:58.034Z,11.20
2018-12-07T17:26:32.820Z,11.20
2018-12-07T17:29:07.730Z,11.20
2018-12-07T17:31:43.043Z,11.30
2018-12-07T17:34:18.197Z,11.30
2018-12-07T17:36:52.778Z,11.30
2018-12-07T17:39:27.744Z,11.40
2018-12-07T17:42:02.399Z,11.40
2018-12-07T17:44:37.105Z,11.50
2018-12-07T17:47:11.811Z,11.50
2018-12-07T17:49:46.363Z,11.40
2018-12-07T17:52:21.120Z,11.40
2018-12-07T17:54:55.778Z,11.40
2018-12-07T17:57:30.436Z,11.40
2018-12-07T18:00:07.804Z,11.40
2018-12-07T18:02:42.382Z,11.40
2018-12-07T18:05:16.982Z,11.30
2018-12-07T18:07:51.609Z,11.30
2018-12-07T18:10:25.990Z,11.30
2018-12-07T18:13:00.847Z,11.20
2018-12-07T18:15:35.348Z,11.20
2018-12-07T18:18:10.077Z,11.10
2018-12-07T18:20:44.942Z,11.10
2018-12-07T18:23:19.653Z,11.00
2018-12-07T18:25:54.371Z,11.00
2018-12-07T18:28:28.828Z,11.00
2018-12-07T18:31:03.543Z,10.90
2018-12-07T18:33:38.099Z,10.90
2018-12-07T18:36:12.989Z,10.90
2018-12-07T18:38:47.849Z,10.80
2018-12-07T18:41:22.649Z,10.80
2018-12-07T18:43:57.260Z,10.80
2018-12-07T18:46:32.021Z,10.80
2018-12-07T18:49:06.657Z,10.80
2018-12-07T18:51:41.624Z,10.80
2018-12-07T18:54:16.839Z,10.80
2018-12-07T18:56:51.502Z,10.80
2018-12-07T18:59:26.436Z,10.80
2018-12-07T19:02:01.378Z,10.80
2018-12-07T19:04:35.916Z,10.90
2018-12-07T19:07:10.652Z,10.80
2018-12-07T19:09:45.250Z,10.80
2018-12-07T19:12:19.989Z,10.80
2018-12-07T19:14:54.732Z,10.70
2018-12-07T19:17:29.602Z,10.70
2018-12-07T19:20:05.797Z,10.60
2018-12-07T19:22:40.486Z,10.60
2018-12-07T19:25:15.615Z,10.60
2018-12-07T19:27:50.711Z,10.50
2018-12-07T19:30:25.416Z,10.50
2018-12-07T19:33:00.348Z,10.50
2018-12-07T19:35:41.597Z,10.60
2018-12-07T19:38:17.473Z,10.60
2018-12-07T19:40:52.409Z,10.60
2018-12-07T19:43:27.013Z,10.50
2018-12-07T19:46:01.890Z,10.50
2018-12-07T19:48:36.684Z,10.40
2018-12-07T19:51:11.778Z,10.40
2018-12-07T19:53:46.497Z,10.40
2018-12-07T19:56:21.583Z,10.40
2018-12-07T19:58:56.756Z,10.40
2018-12-07T20:01:31.468Z,10.30
2018-12-07T20:04:06.744Z,10.30
2018-12-07T20:06:41.509Z,10.30
2018-12-07T20:09:15.990Z,10.30
2018-12-07T20:11:50.658Z,10.20
2018-12-07T20:14:25.253Z,10.00
2018-12-07T20:16:59.984Z,9.80
2018-12-07T20:19:34.660Z,9.40
2018-12-07T20:22:09.268Z,9.10
2018-12-07T20:24:44.943Z,8.90
2018-12-07T20:27:19.641Z,8.70
2018-12-07T20:29:54.265Z,8.60
2018-12-07T20:32:29.585Z,8.40
2018-12-07T20:35:04.398Z,8.30
2018-12-07T20:37:40.200Z,8.30
2018-12-07T20:40:14.965Z,8.30
2018-12-07T20:42:49.884Z,8.20
2018-12-07T20:45:26.207Z,8.20
2018-12-07T20:48:01.120Z,8.20
2018-12-07T20:50:35.918Z,8.10
2018-12-07T20:53:10.581Z,8.10
2018-12-07T20:55:46.659Z,8.10
2018-12-07T20:58:21.345Z,8.10
2018-12-07T21:00:59.359Z,8.10
2018-12-07T21:03:44.673Z,8.10
2018-12-07T21:07:38.508Z,8.00
2018-12-07T21:12:37.021Z,8.00
2018-12-07T21:15:11.788Z,8.00
2018-12-07T21:17:46.228Z,7.90
2018-12-07T21:20:25.286Z,7.90
2018-12-07T21:23:00.051Z,7.80
2018-12-07T21:25:34.572Z,7.80
2018-12-07T21:28:09.181Z,7.80
2018-12-07T21:30:51.861Z,7.80
2018-12-07T21:34:36.184Z,7.80
2018-12-07T21:37:10.989Z,7.70
2018-12-07T21:39:51.948Z,7.70
2018-12-07T21:42:26.933Z,7.70
2018-12-07T21:45:01.767Z,7.70
2018-12-07T21:48:20.422Z,7.70
2018-12-07T21:52:07.884Z,7.70
2018-12-07T21:54:42.497Z,7.70
2018-12-07T21:57:17.482Z,7.70
2018-12-07T21:59:52.385Z,7.60
2018-12-07T22:02:27.195Z,7.60
2018-12-07T22:05:02.181Z,7.60
2018-12-07T22:07:37.357Z,7.60
2018-12-07T22:10:11.974Z,7.60
2018-12-07T22:12:46.737Z,7.70
2018-12-07T22:15:21.504Z,7.70
2018-12-07T22:17:56.264Z,7.70
2018-12-07T22:20:31.180Z,7.70
2018-12-07T22:23:06.111Z,7.70
2018-12-07T22:25:41.018Z,7.70
2018-12-07T22:28:15.606Z,7.70
2018-12-07T22:30:50.132Z,7.70
2018-12-07T22:33:25.071Z,7.70
2018-12-07T22:35:59.901Z,7.70
2018-12-07T22:38:34.930Z,7.70
2018-12-07T22:41:09.842Z,7.60
2018-12-07T22:43:45.546Z,7.50
2018-12-07T22:46:20.190Z,7.50
2018-12-07T22:48:54.894Z,7.50
2018-12-07T22:51:30.760Z,7.50
2018-12-07T22:54:05.588Z,7.50
2018-12-07T22:56:40.145Z,7.50
2018-12-07T22:59:14.687Z,7.50
2018-12-07T23:01:49.414Z,7.40
2018-12-07T23:04:30.457Z,7.40
2018-12-07T23:07:04.899Z,7.40
2018-12-07T23:09:39.534Z,7.30
2018-12-07T23:12:14.020Z,7.20
2018-12-07T23:14:48.956Z,7.20
2018-12-07T23:17:23.516Z,7.20
2018-12-07T23:19:58.032Z,7.20
2018-12-07T23:22:32.804Z,7.20
2018-12-07T23:25:07.604Z,7.20
2018-12-07T23:27:44.359Z,7.20
2018-12-07T23:30:19.065Z,7.20
2018-12-07T23:32:53.804Z,7.20
2018-12-07T23:35:28.308Z,7.20
2018-12-07T23:38:02.968Z,7.10
2018-12-07T23:40:37.436Z,7.10
2018-12-07T23:43:11.952Z,7.00
2018-12-07T23:45:46.555Z,7.00
2018-12-07T23:48:21.343Z,6.90
2018-12-07T23:50:55.966Z,6.90
2018-12-07T23:53:30.328Z,6.80
2018-12-07T23:56:05.049Z,6.70
2018-12-07T23:58:39.535Z,6.70
